Terminal Aerodrome Forecast
Issued by NWS Portland, ME

Home | Current Version | Previous Version | Text Only | Print | Product List | Glossary On
Versions: 1 2 3 4 5 6 7 8 9 10 11 12 13 14 15
000
FTUS41 KGYX 291720
TAFPWM
TAF
KPWM 291720Z 2918/3018 02005KT P6SM OVC100
     FM292100 02002KT P6SM BKN250
     FM300500 33003KT 4SM BR SKC
     FM301100 32005KT P6SM SCT250=

USA.gov is the U.S. government's official web portal to all federal, state and local government web resources and services.